Terminal Aerodrome Forecast
Issued by NWS

Home | Current Version | Previous Version | Text Only | Print | Product List | Glossary On
Versions: 1 2 3 4 5 6 7 8 9 10 11 12 13 14 15 16 17 18 19 20 21 22 23 24 25 26 27 28 29 30
415
FTUS43 KDVN 172105 AAA
TAFCID
TAF AMD
KCID 172105Z 1721/1818 27014G20KT P6SM SCT027 BKN035
      TEMPO 1721/1723 BKN025
     FM180000 29012KT P6SM SCT035
     FM180200 29007KT P6SM SKC
     FM181500 24008KT P6SM SCT040=

USA.gov is the U.S. government's official web portal to all federal, state and local government web resources and services.